Stella Lucy — 9V2548 — position and weather

sailwx.info

Track history (hours):
 
Tides and Currents Weather Stations Pressure Air Temp Water Temp Dewpoint Dewpoint Depression Visibility Wind Speed Wind Dir Waves Ship Positions

Stella Lucy

Last reported at 2018-Jan-25 12:42 UTC. Time now 2018-Feb-17 20:12 UTC.
Position N 01°19' E 103°18'.
Warning: this ship's position is 23 days out of date.

Length 295 m; draft 18.2 m.

Type: Cargo ship. MMSI: 563312000.

Date/timePositionNaut miles runAvg speedWind from/ knotsBaromVisibWave heightAir tempDewpointWater temp
2018-Jan-25 12:42N 01°19' E 103°18'212.2
2018-Jan-25 12:30N 01°18' E 103°20'712.0
2018-Jan-25 11:57N 01°14' E 103°26'511.8
2018-Jan-25 11:30N 01°13' E 103°31'611.3
2018-Jan-25 10:59N 01°12' E 103°37'510.7
2018-Jan-25 10:30N 01°10' E 103°41'4 8.5
2018-Jan-25 09:59N 01°09' E 103°46'611.6
2018-Jan-25 09:29N 01°12' E 103°51'611.7
2018-Jan-25 09:00N 01°14' E 103°56'510.5
2018-Jan-25 08:30N 01°16' E 104°01'3 5.8
2018-Jan-25 07:58N 01°17' E 104°04'0 0.0
2018-Jan-24 23:18N 01°17' E 104°03'0 0.0
2018-Jan-24 22:57N 01°17' E 104°03'0 0.0
2018-Jan-24 20:05N 01°17' E 104°03'0 2.0
2018-Jan-24 19:57N 01°17' E 104°04'3 6.5
2018-Jan-24 19:30N 01°18' E 104°06'  
Track history (hours):
 
Tides and Currents Weather Stations Pressure Air Temp Water Temp Dewpoint Dewpoint Depression Visibility Wind Speed Wind Dir Waves Ship Positions

Stella Lucy

Last reported at 2018-Jan-25 12:42 UTC. Time now 2018-Feb-17 20:12 UTC.
Position N 01°19' E 103°18'.
Warning: this ship's position is 23 days out of date.

Length 295 m; draft 18.2 m.

Type: Cargo ship. MMSI: 563312000.

Date/timePositionNaut miles runAvg speedWind from/ knotsBaromVisibWave heightAir tempDewpointWater temp
2018-Jan-25 12:42N 01°19' E 103°18'212.2
2018-Jan-25 12:30N 01°18' E 103°20'712.0
2018-Jan-25 11:57N 01°14' E 103°26'511.8
2018-Jan-25 11:30N 01°13' E 103°31'611.3
2018-Jan-25 10:59N 01°12' E 103°37'510.7
2018-Jan-25 10:30N 01°10' E 103°41'4 8.5
2018-Jan-25 09:59N 01°09' E 103°46'611.6
2018-Jan-25 09:29N 01°12' E 103°51'611.7
2018-Jan-25 09:00N 01°14' E 103°56'510.5
2018-Jan-25 08:30N 01°16' E 104°01'3 5.8
2018-Jan-25 07:58N 01°17' E 104°04'0 0.0
2018-Jan-24 23:18N 01°17' E 104°03'0 0.0
2018-Jan-24 22:57N 01°17' E 104°03'0 0.0
2018-Jan-24 20:05N 01°17' E 104°03'0 2.0
2018-Jan-24 19:57N 01°17' E 104°04'3 6.5
2018-Jan-24 19:30N 01°18' E 104°06'  

Dump ship's entire track history